Terminal Aerodrome Forecast
Issued by NWS

Home | Current Version | Previous Version | Text Only | Print | Product List | Glossary On
Versions: 1 2 3 4 5 6 7 8 9 10 11 12 13 14 15 16 17 18 19 20 21 22 23 24 25 26
000
FTUS44 KFWD 242053 AAA
TAFAFW
TAF AMD
KAFW 242053Z 2421/2518 14011KT P6SM VCTS SCT040CB BKN110
      TEMPO 2421/2422 16010G20KT 3SM -TSRA BKN035CB
     FM242300 15011KT P6SM SCT050 BKN120
     FM251100 15009KT P6SM VCTS SCT015 BKN040CB
     FM251700 13008KT P6SM VCSH SCT025 OVC100=

USA.gov is the U.S. government's official web portal to all federal, state and local government web resources and services.